sensor_id;sensor_type;location;lat;lon;timestamp;pressure;altitude;pressure_sealevel;temperature;humidity
76762;BME280;65705;51.032;13.790;2024-03-08T00:02:24;101015.16;;;4.81;60.54
76762;BME280;65705;51.032;13.790;2024-03-08T00:04:50;101009.31;;;4.78;60.33
76762;BME280;65705;51.032;13.790;2024-03-08T00:07:16;101005.34;;;4.72;60.78
76762;BME280;65705;51.032;13.790;2024-03-08T00:09:41;101004.22;;;4.76;60.86
76762;BME280;65705;51.032;13.790;2024-03-08T00:12:07;101003.22;;;4.65;60.69
76762;BME280;65705;51.032;13.790;2024-03-08T00:14:33;101006.84;;;4.50;61.17
76762;BME280;65705;51.032;13.790;2024-03-08T00:16:59;101008.16;;;4.43;61.47
76762;BME280;65705;51.032;13.790;2024-03-08T00:19:24;101001.75;;;4.34;61.91
76762;BME280;65705;51.032;13.790;2024-03-08T00:21:50;100999.56;;;4.28;62.66
76762;BME280;65705;51.032;13.790;2024-03-08T00:24:15;101003.31;;;4.10;62.69
76762;BME280;65705;51.032;13.790;2024-03-08T00:26:41;101010.94;;;3.99;63.71
76762;BME280;65705;51.032;13.790;2024-03-08T00:29:08;101000.94;;;3.93;63.89
76762;BME280;65705;51.032;13.790;2024-03-08T00:31:34;101002.78;;;3.91;64.08
76762;BME280;65705;51.032;13.790;2024-03-08T00:34:00;101008.91;;;3.90;63.95
76762;BME280;65705;51.032;13.790;2024-03-08T00:36:26;100999.94;;;3.81;64.65
76762;BME280;65705;51.032;13.790;2024-03-08T00:38:52;101004.94;;;3.70;64.89
76762;BME280;65705;51.032;13.790;2024-03-08T00:41:18;101006.50;;;3.59;65.35
76762;BME280;65705;51.032;13.790;2024-03-08T00:43:44;101007.44;;;3.72;64.81
76762;BME280;65705;51.032;13.790;2024-03-08T00:46:09;100997.53;;;3.64;65.00
76762;BME280;65705;51.032;13.790;2024-03-08T00:48:35;100997.63;;;3.63;65.15
76762;BME280;65705;51.032;13.790;2024-03-08T00:51:02;100995.31;;;3.58;65.89
76762;BME280;65705;51.032;13.790;2024-03-08T00:53:27;101002.06;;;3.61;65.28
76762;BME280;65705;51.032;13.790;2024-03-08T00:55:53;100996.88;;;3.61;65.62
76762;BME280;65705;51.032;13.790;2024-03-08T00:58:20;100990.03;;;3.60;65.86
76762;BME280;65705;51.032;13.790;2024-03-08T01:00:46;100990.69;;;3.63;65.80
76762;BME280;65705;51.032;13.790;2024-03-08T01:03:12;100994.13;;;3.64;65.71
76762;BME280;65705;51.032;13.790;2024-03-08T01:05:37;100991.59;;;3.62;65.66
76762;BME280;65705;51.032;13.790;2024-03-08T01:08:03;100984.94;;;3.58;66.13
76762;BME280;65705;51.032;13.790;2024-03-08T01:10:30;100984.09;;;3.58;66.31
76762;BME280;65705;51.032;13.790;2024-03-08T01:12:56;100988.63;;;3.54;66.33
76762;BME280;65705;51.032;13.790;2024-03-08T01:15:23;100981.75;;;3.53;66.47
76762;BME280;65705;51.032;13.790;2024-03-08T01:17:49;100979.84;;;3.57;66.06
76762;BME280;65705;51.032;13.790;2024-03-08T01:20:15;100973.81;;;3.56;65.88
76762;BME280;65705;51.032;13.790;2024-03-08T01:22:41;100981.22;;;3.48;66.13
76762;BME280;65705;51.032;13.790;2024-03-08T01:25:07;100973.31;;;3.50;66.07
76762;BME280;65705;51.032;13.790;2024-03-08T01:27:34;100973.25;;;3.51;65.64
76762;BME280;65705;51.032;13.790;2024-03-08T01:30:01;100968.78;;;3.39;66.55
76762;BME280;65705;51.032;13.790;2024-03-08T01:32:26;100968.69;;;3.41;66.44
76762;BME280;65705;51.032;13.790;2024-03-08T01:34:53;100963.81;;;3.36;66.46
76762;BME280;65705;51.032;13.790;2024-03-08T01:37:18;100952.97;;;3.30;66.80
76762;BME280;65705;51.032;13.790;2024-03-08T01:39:44;100957.13;;;3.18;67.09
76762;BME280;65705;51.032;13.790;2024-03-08T01:42:10;100953.78;;;3.16;67.20
76762;BME280;65705;51.032;13.790;2024-03-08T01:44:38;100943.78;;;3.24;66.97
76762;BME280;65705;51.032;13.790;2024-03-08T01:47:05;100938.75;;;3.21;67.43
76762;BME280;65705;51.032;13.790;2024-03-08T01:49:31;100944.59;;;3.10;67.35
76762;BME280;65705;51.032;13.790;2024-03-08T01:51:57;100937.56;;;3.12;67.51
76762;BME280;65705;51.032;13.790;2024-03-08T01:54:23;100936.44;;;3.02;67.72
76762;BME280;65705;51.032;13.790;2024-03-08T01:56:50;100943.59;;;3.13;67.63
76762;BME280;65705;51.032;13.790;2024-03-08T01:59:16;100936.00;;;3.10;67.48
76762;BME280;65705;51.032;13.790;2024-03-08T02:01:42;100931.81;;;3.07;67.57
76762;BME280;65705;51.032;13.790;2024-03-08T02:04:08;100932.91;;;2.89;68.49
76762;BME280;65705;51.032;13.790;2024-03-08T02:06:33;100933.47;;;2.94;68.45
76762;BME280;65705;51.032;13.790;2024-03-08T02:09:00;100936.25;;;2.91;68.49
76762;BME280;65705;51.032;13.790;2024-03-08T02:11:26;100931.94;;;2.76;68.96
76762;BME280;65705;51.032;13.790;2024-03-08T02:13:52;100936.56;;;2.71;68.77
76762;BME280;65705;51.032;13.790;2024-03-08T02:16:21;100931.56;;;2.68;69.43
76762;BME280;65705;51.032;13.790;2024-03-08T02:18:47;100928.00;;;2.55;69.61
76762;BME280;65705;51.032;13.790;2024-03-08T02:21:16;100925.50;;;2.54;70.03
76762;BME280;65705;51.032;13.790;2024-03-08T02:23:43;100924.63;;;2.39;70.31
76762;BME280;65705;51.032;13.790;2024-03-08T02:26:10;100916.19;;;2.36;70.90
76762;BME280;65705;51.032;13.790;2024-03-08T02:28:36;100915.44;;;2.34;71.06
76762;BME280;65705;51.032;13.790;2024-03-08T02:31:02;100914.19;;;2.41;70.93
76762;BME280;65705;51.032;13.790;2024-03-08T02:33:28;100916.63;;;2.44;70.57
76762;BME280;65705;51.032;13.790;2024-03-08T02:35:54;100915.53;;;2.32;71.18
76762;BME280;65705;51.032;13.790;2024-03-08T02:38:22;100916.81;;;2.25;71.16
76762;BME280;65705;51.032;13.790;2024-03-08T02:40:50;100911.50;;;2.42;71.06
76762;BME280;65705;51.032;13.790;2024-03-08T02:43:17;100911.31;;;2.31;72.07
76762;BME280;65705;51.032;13.790;2024-03-08T02:45:44;100910.78;;;2.40;71.12
76762;BME280;65705;51.032;13.790;2024-03-08T02:48:11;100908.91;;;2.42;70.98
76762;BME280;65705;51.032;13.790;2024-03-08T02:50:37;100918.19;;;2.46;71.04
76762;BME280;65705;51.032;13.790;2024-03-08T02:53:05;100916.28;;;2.34;70.70
76762;BME280;65705;51.032;13.790;2024-03-08T02:55:32;100909.38;;;2.35;71.37
76762;BME280;65705;51.032;13.790;2024-03-08T02:58:02;100910.94;;;2.37;71.26
76762;BME280;65705;51.032;13.790;2024-03-08T03:00:29;100906.13;;;2.31;71.55
76762;BME280;65705;51.032;13.790;2024-03-08T03:02:56;100911.56;;;2.11;72.37
76762;BME280;65705;51.032;13.790;2024-03-08T03:05:25;100913.94;;;2.00;72.76
76762;BME280;65705;51.032;13.790;2024-03-08T03:07:51;100910.91;;;1.92;73.35
76762;BME280;65705;51.032;13.790;2024-03-08T03:10:17;100901.41;;;1.77;74.25
76762;BME280;65705;51.032;13.790;2024-03-08T03:12:48;100899.34;;;1.68;74.54
76762;BME280;65705;51.032;13.790;2024-03-08T03:15:17;100900.75;;;1.73;74.93
76762;BME280;65705;51.032;13.790;2024-03-08T03:17:50;100897.91;;;1.62;75.41
76762;BME280;65705;51.032;13.790;2024-03-08T03:20:19;100900.91;;;1.55;75.22
76762;BME280;65705;51.032;13.790;2024-03-08T03:22:58;100895.66;;;1.56;75.61
76762;BME280;65705;51.032;13.790;2024-03-08T03:25:27;100898.41;;;1.53;75.09
76762;BME280;65705;51.032;13.790;2024-03-08T03:27:58;100891.41;;;1.55;74.81
76762;BME280;65705;51.032;13.790;2024-03-08T03:30:25;100897.25;;;1.59;74.76
76762;BME280;65705;51.032;13.790;2024-03-08T03:32:59;100893.91;;;1.57;74.59
76762;BME280;65705;51.032;13.790;2024-03-08T03:35:27;100898.22;;;1.56;74.58
76762;BME280;65705;51.032;13.790;2024-03-08T03:37:53;100887.47;;;1.64;74.41
76762;BME280;65705;51.032;13.790;2024-03-08T03:40:36;100887.81;;;1.73;73.82
76762;BME280;65705;51.032;13.790;2024-03-08T03:43:03;100889.06;;;1.66;74.09
76762;BME280;65705;51.032;13.790;2024-03-08T03:45:29;100890.41;;;1.73;73.60
76762;BME280;65705;51.032;13.790;2024-03-08T03:47:55;100890.63;;;1.69;73.87
76762;BME280;65705;51.032;13.790;2024-03-08T03:50:21;100882.97;;;1.67;74.33
76762;BME280;65705;51.032;13.790;2024-03-08T03:52:47;100885.88;;;1.46;75.17
76762;BME280;65705;51.032;13.790;2024-03-08T03:55:14;100887.03;;;1.40;75.37
76762;BME280;65705;51.032;13.790;2024-03-08T03:57:40;100884.22;;;1.45;75.55
76762;BME280;65705;51.032;13.790;2024-03-08T04:00:07;100890.47;;;1.41;75.65
76762;BME280;65705;51.032;13.790;2024-03-08T04:02:40;100885.88;;;1.46;75.23
76762;BME280;65705;51.032;13.790;2024-03-08T04:05:07;100880.63;;;1.47;75.49
76762;BME280;65705;51.032;13.790;2024-03-08T04:07:34;100879.06;;;1.45;75.00
76762;BME280;65705;51.032;13.790;2024-03-08T04:10:01;100877.31;;;1.45;75.25
76762;BME280;65705;51.032;13.790;2024-03-08T04:12:27;100871.97;;;1.48;74.82
76762;BME280;65705;51.032;13.790;2024-03-08T04:14:54;100873.03;;;1.44;74.89
76762;BME280;65705;51.032;13.790;2024-03-08T04:17:21;100868.94;;;1.40;75.12
76762;BME280;65705;51.032;13.790;2024-03-08T04:19:47;100871.38;;;1.43;75.25
76762;BME280;65705;51.032;13.790;2024-03-08T04:22:16;100883.56;;;1.41;74.98
76762;BME280;65705;51.032;13.790;2024-03-08T04:24:44;100873.03;;;1.44;74.65
76762;BME280;65705;51.032;13.790;2024-03-08T04:27:09;100885.47;;;1.38;75.26
76762;BME280;65705;51.032;13.790;2024-03-08T04:29:35;100867.09;;;1.42;75.40
76762;BME280;65705;51.032;13.790;2024-03-08T04:32:05;100873.84;;;1.29;75.83
76762;BME280;65705;51.032;13.790;2024-03-08T04:34:32;100871.06;;;1.17;75.91
76762;BME280;65705;51.032;13.790;2024-03-08T04:37:00;100869.25;;;1.19;76.22
76762;BME280;65705;51.032;13.790;2024-03-08T04:39:26;100864.69;;;1.24;76.04
76762;BME280;65705;51.032;13.790;2024-03-08T04:41:59;100871.59;;;1.23;76.05
76762;BME280;65705;51.032;13.790;2024-03-08T04:44:29;100868.34;;;1.35;75.83
76762;BME280;65705;51.032;13.790;2024-03-08T04:46:55;100866.44;;;1.39;75.65
76762;BME280;65705;51.032;13.790;2024-03-08T04:49:20;100866.97;;;1.45;75.30
76762;BME280;65705;51.032;13.790;2024-03-08T04:51:48;100865.38;;;1.43;74.91
76762;BME280;65705;51.032;13.790;2024-03-08T04:54:13;100865.38;;;1.43;75.03
76762;BME280;65705;51.032;13.790;2024-03-08T04:56:39;100863.44;;;1.31;75.27
76762;BME280;65705;51.032;13.790;2024-03-08T04:59:05;100868.34;;;1.20;76.39
76762;BME280;65705;51.032;13.790;2024-03-08T05:01:34;100867.69;;;1.16;76.84
76762;BME280;65705;51.032;13.790;2024-03-08T05:04:02;100867.00;;;1.13;76.37
76762;BME280;65705;51.032;13.790;2024-03-08T05:06:27;100865.41;;;1.10;76.64
76762;BME280;65705;51.032;13.790;2024-03-08T05:08:54;100859.84;;;1.18;76.75
76762;BME280;65705;51.032;13.790;2024-03-08T05:11:20;100855.41;;;1.20;76.20
76762;BME280;65705;51.032;13.790;2024-03-08T05:13:45;100849.75;;;1.29;75.80
76762;BME280;65705;51.032;13.790;2024-03-08T05:16:11;100849.59;;;1.32;75.61
76762;BME280;65705;51.032;13.790;2024-03-08T05:18:37;100853.44;;;1.40;75.45
76762;BME280;65705;51.032;13.790;2024-03-08T05:21:03;100857.44;;;1.46;74.89
76762;BME280;65705;51.032;13.790;2024-03-08T05:23:30;100852.13;;;1.49;74.72
76762;BME280;65705;51.032;13.790;2024-03-08T05:25:55;100858.44;;;1.59;74.28
76762;BME280;65705;51.032;13.790;2024-03-08T05:28:21;100846.69;;;1.53;74.44
76762;BME280;65705;51.032;13.790;2024-03-08T05:30:47;100847.34;;;1.57;74.85
76762;BME280;65705;51.032;13.790;2024-03-08T05:33:12;100849.94;;;1.57;74.73
76762;BME280;65705;51.032;13.790;2024-03-08T05:35:40;100844.94;;;1.54;75.01
76762;BME280;65705;51.032;13.790;2024-03-08T05:38:05;100851.00;;;1.53;75.09
76762;BME280;65705;51.032;13.790;2024-03-08T05:40:32;100851.28;;;1.48;75.05
76762;BME280;65705;51.032;13.790;2024-03-08T05:42:58;100856.28;;;1.51;75.06
76762;BME280;65705;51.032;13.790;2024-03-08T05:45:25;100844.00;;;1.55;74.86
76762;BME280;65705;51.032;13.790;2024-03-08T05:47:51;100850.69;;;1.59;74.31
76762;BME280;65705;51.032;13.790;2024-03-08T05:50:17;100841.66;;;1.66;73.56
76762;BME280;65705;51.032;13.790;2024-03-08T05:52:43;100837.47;;;1.63;73.53
76762;BME280;65705;51.032;13.790;2024-03-08T05:55:09;100840.66;;;1.53;73.92
76762;BME280;65705;51.032;13.790;2024-03-08T05:57:35;100843.44;;;1.50;74.11
76762;BME280;65705;51.032;13.790;2024-03-08T06:00:05;100848.41;;;1.53;74.33
76762;BME280;65705;51.032;13.790;2024-03-08T06:02:38;100840.84;;;1.50;74.57
76762;BME280;65705;51.032;13.790;2024-03-08T06:05:09;100847.94;;;1.46;74.74
76762;BME280;65705;51.032;13.790;2024-03-08T06:07:35;100853.78;;;1.34;75.70
76762;BME280;65705;51.032;13.790;2024-03-08T06:10:00;100846.81;;;1.35;75.76
76762;BME280;65705;51.032;13.790;2024-03-08T06:12:26;100849.19;;;1.39;75.78
76762;BME280;65705;51.032;13.790;2024-03-08T06:14:54;100853.50;;;1.54;75.12
76762;BME280;65705;51.032;13.790;2024-03-08T06:17:20;100852.34;;;1.60;74.78
76762;BME280;65705;51.032;13.790;2024-03-08T06:19:51;100850.19;;;1.68;74.47
76762;BME280;65705;51.032;13.790;2024-03-08T06:22:17;100852.00;;;1.66;74.47
76762;BME280;65705;51.032;13.790;2024-03-08T06:24:42;100858.00;;;1.82;74.34
76762;BME280;65705;51.032;13.790;2024-03-08T06:27:08;100850.91;;;1.85;73.91
76762;BME280;65705;51.032;13.790;2024-03-08T06:29:35;100848.06;;;1.90;73.93
76762;BME280;65705;51.032;13.790;2024-03-08T06:32:00;100835.53;;;1.98;73.62
76762;BME280;65705;51.032;13.790;2024-03-08T06:34:26;100842.63;;;1.94;73.95
76762;BME280;65705;51.032;13.790;2024-03-08T06:36:52;100843.47;;;1.95;74.53
76762;BME280;65705;51.032;13.790;2024-03-08T06:39:18;100840.38;;;1.88;74.94
76762;BME280;65705;51.032;13.790;2024-03-08T06:41:43;100838.91;;;1.84;75.33
76762;BME280;65705;51.032;13.790;2024-03-08T06:44:10;100844.13;;;1.83;75.77
76762;BME280;65705;51.032;13.790;2024-03-08T06:46:35;100842.75;;;1.77;76.08
76762;BME280;65705;51.032;13.790;2024-03-08T06:49:01;100837.81;;;1.73;75.83
76762;BME280;65705;51.032;13.790;2024-03-08T06:51:28;100835.06;;;1.76;76.10
76762;BME280;65705;51.032;13.790;2024-03-08T06:53:54;100836.81;;;1.75;76.53
76762;BME280;65705;51.032;13.790;2024-03-08T06:56:19;100833.31;;;1.76;76.25
76762;BME280;65705;51.032;13.790;2024-03-08T06:58:45;100829.63;;;1.80;76.32
76762;BME280;65705;51.032;13.790;2024-03-08T07:01:11;100832.03;;;1.83;75.92
76762;BME280;65705;51.032;13.790;2024-03-08T07:03:41;100835.28;;;1.87;76.40
76762;BME280;65705;51.032;13.790;2024-03-08T07:06:10;100833.13;;;1.95;75.84
76762;BME280;65705;51.032;13.790;2024-03-08T07:08:36;100827.81;;;2.12;75.00
76762;BME280;65705;51.032;13.790;2024-03-08T07:11:02;100835.59;;;2.26;74.64
76762;BME280;65705;51.032;13.790;2024-03-08T07:13:29;100819.00;;;2.44;73.67
76762;BME280;65705;51.032;13.790;2024-03-08T07:15:55;100821.34;;;2.49;73.59
76762;BME280;65705;51.032;13.790;2024-03-08T07:18:20;100815.75;;;2.41;74.11
76762;BME280;65705;51.032;13.790;2024-03-08T07:20:47;100821.03;;;2.39;73.90
76762;BME280;65705;51.032;13.790;2024-03-08T07:23:14;100821.03;;;2.39;74.09
76762;BME280;65705;51.032;13.790;2024-03-08T07:26:00;100816.72;;;2.54;73.79
76762;BME280;65705;51.032;13.790;2024-03-08T07:28:27;100821.53;;;2.60;73.19
76762;BME280;65705;51.032;13.790;2024-03-08T07:30:53;100810.78;;;2.80;72.47
76762;BME280;65705;51.032;13.790;2024-03-08T07:33:27;100806.63;;;2.91;71.82
76762;BME280;65705;51.032;13.790;2024-03-08T07:35:52;100811.16;;;3.02;71.21
76762;BME280;65705;51.032;13.790;2024-03-08T07:38:18;100813.19;;;3.11;71.07
76762;BME280;65705;51.032;13.790;2024-03-08T07:40:46;100809.56;;;3.28;70.34
76762;BME280;65705;51.032;13.790;2024-03-08T07:43:13;100804.94;;;3.18;70.82
76762;BME280;65705;51.032;13.790;2024-03-08T07:45:39;100805.28;;;3.27;70.53
76762;BME280;65705;51.032;13.790;2024-03-08T07:48:05;100804.81;;;3.34;70.01
76762;BME280;65705;51.032;13.790;2024-03-08T07:50:42;100810.19;;;3.31;70.51
76762;BME280;65705;51.032;13.790;2024-03-08T07:53:07;100798.41;;;3.40;70.52
76762;BME280;65705;51.032;13.790;2024-03-08T07:55:34;100800.44;;;3.49;70.04
76762;BME280;65705;51.032;13.790;2024-03-08T07:58:01;100801.16;;;3.51;70.47
76762;BME280;65705;51.032;13.790;2024-03-08T08:00:27;100801.50;;;3.59;69.82
76762;BME280;65705;51.032;13.790;2024-03-08T08:02:53;100799.53;;;3.62;69.76
76762;BME280;65705;51.032;13.790;2024-03-08T08:05:19;100799.47;;;3.64;69.73
76762;BME280;65705;51.032;13.790;2024-03-08T08:07:45;100800.41;;;3.75;69.62
76762;BME280;65705;51.032;13.790;2024-03-08T08:10:12;100792.34;;;3.80;69.76
76762;BME280;65705;51.032;13.790;2024-03-08T08:12:50;100794.44;;;3.87;69.46
76762;BME280;65705;51.032;13.790;2024-03-08T08:15:17;100789.59;;;3.95;69.28
76762;BME280;65705;51.032;13.790;2024-03-08T08:17:46;100782.66;;;4.08;69.14
76762;BME280;65705;51.032;13.790;2024-03-08T08:20:13;100770.22;;;4.26;68.62
76762;BME280;65705;51.032;13.790;2024-03-08T08:22:42;100767.09;;;4.34;67.58
76762;BME280;65705;51.032;13.790;2024-03-08T08:25:10;100772.31;;;4.46;67.44
76762;BME280;65705;51.032;13.790;2024-03-08T08:27:41;100769.16;;;4.54;67.04
76762;BME280;65705;51.032;13.790;2024-03-08T08:30:08;100768.34;;;4.66;66.74
76762;BME280;65705;51.032;13.790;2024-03-08T08:32:35;100768.63;;;4.74;66.06
76762;BME280;65705;51.032;13.790;2024-03-08T08:35:02;100759.16;;;4.85;65.53
76762;BME280;65705;51.032;13.790;2024-03-08T08:37:30;100762.16;;;4.92;65.16
76762;BME280;65705;51.032;13.790;2024-03-08T08:39:57;100766.09;;;4.97;64.87
76762;BME280;65705;51.032;13.790;2024-03-08T08:42:23;100756.81;;;5.06;64.73
76762;BME280;65705;51.032;13.790;2024-03-08T08:44:49;100755.25;;;5.16;63.99
76762;BME280;65705;51.032;13.790;2024-03-08T08:47:16;100751.16;;;5.24;63.14
76762;BME280;65705;51.032;13.790;2024-03-08T08:49:44;100746.34;;;5.31;63.53
76762;BME280;65705;51.032;13.790;2024-03-08T08:52:12;100743.31;;;5.37;63.16
76762;BME280;65705;51.032;13.790;2024-03-08T08:54:38;100747.00;;;5.46;63.15
76762;BME280;65705;51.032;13.790;2024-03-08T08:57:03;100740.03;;;5.46;62.80
76762;BME280;65705;51.032;13.790;2024-03-08T08:59:36;100737.63;;;5.56;62.64
76762;BME280;65705;51.032;13.790;2024-03-08T09:02:06;100734.09;;;5.68;62.03
76762;BME280;65705;51.032;13.790;2024-03-08T09:04:32;100729.03;;;5.77;61.54
76762;BME280;65705;51.032;13.790;2024-03-08T09:06:58;100722.97;;;5.89;61.18
76762;BME280;65705;51.032;13.790;2024-03-08T09:09:23;100717.41;;;5.94;61.28
76762;BME280;65705;51.032;13.790;2024-03-08T09:11:51;100732.09;;;5.95;60.82
76762;BME280;65705;51.032;13.790;2024-03-08T09:14:17;100716.38;;;6.07;60.36
76762;BME280;65705;51.032;13.790;2024-03-08T09:16:42;100717.59;;;6.14;60.01
76762;BME280;65705;51.032;13.790;2024-03-08T09:19:08;100721.59;;;6.18;59.94
76762;BME280;65705;51.032;13.790;2024-03-08T09:21:36;100712.84;;;6.19;59.36
76762;BME280;65705;51.032;13.790;2024-03-08T09:24:02;100712.28;;;6.27;59.02
76762;BME280;65705;51.032;13.790;2024-03-08T09:26:28;100710.00;;;6.33;59.07
76762;BME280;65705;51.032;13.790;2024-03-08T09:28:54;100705.16;;;6.40;59.10
76762;BME280;65705;51.032;13.790;2024-03-08T09:31:22;100703.28;;;6.53;58.80
76762;BME280;65705;51.032;13.790;2024-03-08T09:33:48;100701.97;;;6.59;58.69
76762;BME280;65705;51.032;13.790;2024-03-08T09:36:14;100700.06;;;6.61;59.07
76762;BME280;65705;51.032;13.790;2024-03-08T09:38:40;100695.06;;;6.69;58.39
76762;BME280;65705;51.032;13.790;2024-03-08T09:41:06;100698.28;;;6.72;58.21
76762;BME280;65705;51.032;13.790;2024-03-08T09:43:32;100690.94;;;6.66;58.49
76762;BME280;65705;51.032;13.790;2024-03-08T09:45:58;100683.25;;;6.76;57.76
76762;BME280;65705;51.032;13.790;2024-03-08T09:48:25;100686.66;;;6.87;57.38
76762;BME280;65705;51.032;13.790;2024-03-08T09:50:51;100692.00;;;6.86;56.41
76762;BME280;65705;51.032;13.790;2024-03-08T09:53:17;100683.56;;;6.93;56.32
76762;BME280;65705;51.032;13.790;2024-03-08T09:55:43;100685.91;;;7.07;56.47
76762;BME280;65705;51.032;13.790;2024-03-08T09:58:15;100685.28;;;7.15;55.67
76762;BME280;65705;51.032;13.790;2024-03-08T10:00:53;100678.50;;;7.23;55.29
76762;BME280;65705;51.032;13.790;2024-03-08T10:03:20;100668.63;;;7.27;55.66
76762;BME280;65705;51.032;13.790;2024-03-08T10:05:45;100675.00;;;7.34;54.74
76762;BME280;65705;51.032;13.790;2024-03-08T10:08:12;100677.84;;;7.42;54.59
76762;BME280;65705;51.032;13.790;2024-03-08T10:10:39;100669.88;;;7.43;54.37
76762;BME280;65705;51.032;13.790;2024-03-08T10:13:08;100665.38;;;7.45;54.57
76762;BME280;65705;51.032;13.790;2024-03-08T10:15:35;100670.78;;;7.54;55.27
76762;BME280;65705;51.032;13.790;2024-03-08T10:18:01;100669.50;;;7.48;54.53
76762;BME280;65705;51.032;13.790;2024-03-08T10:20:30;100662.81;;;7.55;54.41
76762;BME280;65705;51.032;13.790;2024-03-08T10:23:05;100659.84;;;7.60;54.34
76762;BME280;65705;51.032;13.790;2024-03-08T10:25:32;100656.59;;;7.67;54.52
76762;BME280;65705;51.032;13.790;2024-03-08T10:27:58;100644.59;;;7.65;54.41
76762;BME280;65705;51.032;13.790;2024-03-08T10:30:24;100642.00;;;7.65;54.31
76762;BME280;65705;51.032;13.790;2024-03-08T10:32:50;100638.69;;;7.63;54.09
76762;BME280;65705;51.032;13.790;2024-03-08T10:35:17;100646.97;;;7.68;54.60
76762;BME280;65705;51.032;13.790;2024-03-08T10:37:48;100645.97;;;7.80;54.02
76762;BME280;65705;51.032;13.790;2024-03-08T10:40:19;100642.44;;;7.90;53.88
76762;BME280;65705;51.032;13.790;2024-03-08T10:42:56;100632.16;;;7.98;53.22
76762;BME280;65705;51.032;13.790;2024-03-08T10:45:39;100633.16;;;8.07;53.59
76762;BME280;65705;51.032;13.790;2024-03-08T10:50:42;100631.44;;;8.17;52.53
76762;BME280;65705;51.032;13.790;2024-03-08T10:53:11;100633.28;;;8.05;53.04
76762;BME280;65705;51.032;13.790;2024-03-08T10:55:40;100626.44;;;8.14;52.91
76762;BME280;65705;51.032;13.790;2024-03-08T10:58:06;100620.56;;;8.12;52.78
76762;BME280;65705;51.032;13.790;2024-03-08T11:00:34;100620.28;;;8.15;52.75
76762;BME280;65705;51.032;13.790;2024-03-08T11:03:00;100621.53;;;8.20;52.49
76762;BME280;65705;51.032;13.790;2024-03-08T11:05:46;100611.28;;;8.28;52.27
76762;BME280;65705;51.032;13.790;2024-03-08T11:10:54;100618.22;;;8.48;52.03
76762;BME280;65705;51.032;13.790;2024-03-08T11:13:39;100614.53;;;8.51;51.82
76762;BME280;65705;51.032;13.790;2024-03-08T11:16:57;100605.44;;;8.55;51.39
76762;BME280;65705;51.032;13.790;2024-03-08T11:18:59;100602.31;;;8.61;51.08
76762;BME280;65705;51.032;13.790;2024-03-08T11:21:33;100598.47;;;8.65;51.07
76762;BME280;65705;51.032;13.790;2024-03-08T11:24:06;100598.88;;;8.70;51.12
76762;BME280;65705;51.032;13.790;2024-03-08T11:26:33;100583.44;;;8.77;50.64
76762;BME280;65705;51.032;13.790;2024-03-08T11:32:12;100580.72;;;8.78;50.82
76762;BME280;65705;51.032;13.790;2024-03-08T11:34:41;100578.09;;;8.88;50.71
76762;BME280;65705;51.032;13.790;2024-03-08T11:37:14;100581.97;;;8.93;50.55
76762;BME280;65705;51.032;13.790;2024-03-08T11:39:47;100572.19;;;8.95;49.93
76762;BME280;65705;51.032;13.790;2024-03-08T11:42:15;100571.38;;;9.04;49.80
76762;BME280;65705;51.032;13.790;2024-03-08T11:44:46;100561.44;;;8.98;49.94
76762;BME280;65705;51.032;13.790;2024-03-08T11:47:13;100554.97;;;9.02;49.41
76762;BME280;65705;51.032;13.790;2024-03-08T11:49:40;100553.31;;;9.11;49.00
76762;BME280;65705;51.032;13.790;2024-03-08T11:52:13;100554.28;;;9.19;49.51
76762;BME280;65705;51.032;13.790;2024-03-08T11:54:48;100545.59;;;9.28;49.39
76762;BME280;65705;51.032;13.790;2024-03-08T11:57:21;100539.78;;;9.34;48.61
76762;BME280;65705;51.032;13.790;2024-03-08T11:59:51;100545.97;;;9.43;48.23
76762;BME280;65705;51.032;13.790;2024-03-08T12:02:17;100531.34;;;9.50;48.33
76762;BME280;65705;51.032;13.790;2024-03-08T12:04:45;100536.69;;;9.58;48.13
76762;BME280;65705;51.032;13.790;2024-03-08T12:07:11;100532.84;;;9.62;47.88
76762;BME280;65705;51.032;13.790;2024-03-08T12:09:42;100530.22;;;9.62;47.29
76762;BME280;65705;51.032;13.790;2024-03-08T12:12:12;100530.34;;;9.61;47.20
76762;BME280;65705;51.032;13.790;2024-03-08T12:14:38;100524.00;;;9.63;47.52
76762;BME280;65705;51.032;13.790;2024-03-08T12:17:04;100527.06;;;9.58;47.59
76762;BME280;65705;51.032;13.790;2024-03-08T12:19:31;100521.50;;;9.71;47.85
76762;BME280;65705;51.032;13.790;2024-03-08T12:22:07;100524.75;;;9.83;47.82
76762;BME280;65705;51.032;13.790;2024-03-08T12:24:34;100517.69;;;9.93;47.23
76762;BME280;65705;51.032;13.790;2024-03-08T12:27:00;100518.50;;;9.93;46.77
76762;BME280;65705;51.032;13.790;2024-03-08T12:29:27;100513.22;;;10.03;47.20
76762;BME280;65705;51.032;13.790;2024-03-08T12:31:55;100509.66;;;9.94;46.79
76762;BME280;65705;51.032;13.790;2024-03-08T12:34:21;100502.41;;;10.06;46.69
76762;BME280;65705;51.032;13.790;2024-03-08T12:36:48;100494.84;;;10.12;46.55
76762;BME280;65705;51.032;13.790;2024-03-08T12:39:16;100490.28;;;10.05;46.38
76762;BME280;65705;51.032;13.790;2024-03-08T12:41:43;100491.09;;;10.15;46.82
76762;BME280;65705;51.032;13.790;2024-03-08T12:44:09;100485.66;;;10.26;46.70
76762;BME280;65705;51.032;13.790;2024-03-08T12:46:37;100483.94;;;10.34;46.49
76762;BME280;65705;51.032;13.790;2024-03-08T12:49:08;100480.03;;;10.38;46.83
76762;BME280;65705;51.032;13.790;2024-03-08T12:51:38;100470.59;;;10.45;46.34
76762;BME280;65705;51.032;13.790;2024-03-08T12:54:07;100461.63;;;10.48;46.55
76762;BME280;65705;51.032;13.790;2024-03-08T12:56:34;100457.31;;;10.47;46.27
76762;BME280;65705;51.032;13.790;2024-03-08T12:59:02;100463.19;;;10.58;46.59
76762;BME280;65705;51.032;13.790;2024-03-08T13:01:28;100457.19;;;10.66;46.77